sensor_id;sensor_type;location;lat;lon;timestamp;P1;durP1;ratioP1;P2;durP2;ratioP2
23163;SDS011;31429;42.674;23.350;2023-05-07T00:00:40;21.70;;;15.00;;
23163;SDS011;31429;42.674;23.350;2023-05-07T00:01:40;23.77;;;18.13;;
23163;SDS011;31429;42.674;23.350;2023-05-07T00:02:41;23.03;;;16.53;;
23163;SDS011;31429;42.674;23.350;2023-05-07T00:03:41;23.77;;;17.80;;
23163;SDS011;31429;42.674;23.350;2023-05-07T00:04:42;20.87;;;17.57;;
23163;SDS011;31429;42.674;23.350;2023-05-07T00:05:44;18.63;;;15.98;;
23163;SDS011;31429;42.674;23.350;2023-05-07T00:06:46;21.17;;;16.40;;
23163;SDS011;31429;42.674;23.350;2023-05-07T00:07:46;21.45;;;17.00;;
23163;SDS011;31429;42.674;23.350;2023-05-07T00:08:47;24.97;;;18.27;;
23163;SDS011;31429;42.674;23.350;2023-05-07T00:09:48;26.13;;;19.63;;
23163;SDS011;31429;42.674;23.350;2023-05-07T00:10:49;26.43;;;19.47;;
23163;SDS011;31429;42.674;23.350;2023-05-07T00:11:49;23.97;;;18.53;;
23163;SDS011;31429;42.674;23.350;2023-05-07T00:12:50;22.23;;;19.10;;
23163;SDS011;31429;42.674;23.350;2023-05-07T00:13:51;20.43;;;18.27;;
23163;SDS011;31429;42.674;23.350;2023-05-07T00:14:51;26.67;;;19.73;;
23163;SDS011;31429;42.674;23.350;2023-05-07T00:15:52;26.20;;;21.03;;
23163;SDS011;31429;42.674;23.350;2023-05-07T00:16:52;25.30;;;20.40;;
23163;SDS011;31429;42.674;23.350;2023-05-07T00:17:53;60.00;;;48.57;;
23163;SDS011;31429;42.674;23.350;2023-05-07T00:18:54;57.03;;;41.67;;
23163;SDS011;31429;42.674;23.350;2023-05-07T00:19:54;40.27;;;30.20;;
23163;SDS011;31429;42.674;23.350;2023-05-07T00:20:55;51.60;;;40.03;;
23163;SDS011;31429;42.674;23.350;2023-05-07T00:21:57;36.03;;;27.52;;
23163;SDS011;31429;42.674;23.350;2023-05-07T00:22:58;50.47;;;37.97;;
23163;SDS011;31429;42.674;23.350;2023-05-07T00:23:59;103.13;;;77.43;;
23163;SDS011;31429;42.674;23.350;2023-05-07T00:24:59;265.37;;;191.77;;
23163;SDS011;31429;42.674;23.350;2023-05-07T00:26:00;219.37;;;165.00;;
23163;SDS011;31429;42.674;23.350;2023-05-07T00:27:00;231.97;;;171.20;;
23163;SDS011;31429;42.674;23.350;2023-05-07T00:28:01;261.40;;;190.93;;
23163;SDS011;31429;42.674;23.350;2023-05-07T00:29:03;98.13;;;72.65;;
23163;SDS011;31429;42.674;23.350;2023-05-07T00:30:05;54.20;;;42.63;;
23163;SDS011;31429;42.674;23.350;2023-05-07T00:31:06;38.33;;;30.23;;
23163;SDS011;31429;42.674;23.350;2023-05-07T00:32:07;28.30;;;23.60;;
23163;SDS011;31429;42.674;23.350;2023-05-07T00:33:08;31.23;;;24.42;;
23163;SDS011;31429;42.674;23.350;2023-05-07T00:34:08;40.03;;;31.17;;
23163;SDS011;31429;42.674;23.350;2023-05-07T00:35:09;33.53;;;26.70;;
23163;SDS011;31429;42.674;23.350;2023-05-07T00:36:10;32.97;;;26.83;;
23163;SDS011;31429;42.674;23.350;2023-05-07T00:37:12;27.47;;;23.10;;
23163;SDS011;31429;42.674;23.350;2023-05-07T00:38:12;27.52;;;20.67;;
23163;SDS011;31429;42.674;23.350;2023-05-07T00:39:13;25.57;;;21.27;;
23163;SDS011;31429;42.674;23.350;2023-05-07T00:40:14;33.67;;;25.67;;
23163;SDS011;31429;42.674;23.350;2023-05-07T00:41:15;21.30;;;19.03;;
23163;SDS011;31429;42.674;23.350;2023-05-07T00:42:15;22.37;;;19.93;;
23163;SDS011;31429;42.674;23.350;2023-05-07T00:43:16;21.87;;;18.43;;
23163;SDS011;31429;42.674;23.350;2023-05-07T00:44:17;24.37;;;18.63;;
23163;SDS011;31429;42.674;23.350;2023-05-07T00:45:18;29.67;;;23.20;;
23163;SDS011;31429;42.674;23.350;2023-05-07T00:46:19;30.67;;;23.67;;
23163;SDS011;31429;42.674;23.350;2023-05-07T00:47:21;28.65;;;24.80;;
23163;SDS011;31429;42.674;23.350;2023-05-07T00:48:21;22.40;;;19.10;;
23163;SDS011;31429;42.674;23.350;2023-05-07T00:49:24;22.50;;;19.17;;
23163;SDS011;31429;42.674;23.350;2023-05-07T00:50:36;27.77;;;19.90;;
23163;SDS011;31429;42.674;23.350;2023-05-07T00:51:36;26.23;;;20.43;;
23163;SDS011;31429;42.674;23.350;2023-05-07T00:52:38;21.73;;;19.33;;
23163;SDS011;31429;42.674;23.350;2023-05-07T00:53:39;28.30;;;24.95;;
23163;SDS011;31429;42.674;23.350;2023-05-07T00:54:40;23.03;;;19.87;;
23163;SDS011;31429;42.674;23.350;2023-05-07T00:55:41;24.08;;;20.52;;
23163;SDS011;31429;42.674;23.350;2023-05-07T00:56:42;25.80;;;21.90;;
23163;SDS011;31429;42.674;23.350;2023-05-07T00:57:42;32.47;;;25.50;;
23163;SDS011;31429;42.674;23.350;2023-05-07T00:58:44;27.85;;;23.02;;
23163;SDS011;31429;42.674;23.350;2023-05-07T00:59:45;27.23;;;21.37;;
23163;SDS011;31429;42.674;23.350;2023-05-07T01:00:46;23.27;;;19.53;;
23163;SDS011;31429;42.674;23.350;2023-05-07T01:01:46;24.60;;;18.07;;
23163;SDS011;31429;42.674;23.350;2023-05-07T01:02:47;21.47;;;18.67;;
23163;SDS011;31429;42.674;23.350;2023-05-07T01:03:48;24.43;;;19.50;;
23163;SDS011;31429;42.674;23.350;2023-05-07T01:04:49;23.13;;;20.73;;
23163;SDS011;31429;42.674;23.350;2023-05-07T01:05:49;27.73;;;22.43;;
23163;SDS011;31429;42.674;23.350;2023-05-07T01:06:51;28.15;;;23.02;;
23163;SDS011;31429;42.674;23.350;2023-05-07T01:07:54;27.45;;;22.10;;
23163;SDS011;31429;42.674;23.350;2023-05-07T01:08:55;24.00;;;21.40;;
23163;SDS011;31429;42.674;23.350;2023-05-07T01:09:57;25.95;;;21.08;;
23163;SDS011;31429;42.674;23.350;2023-05-07T01:10:58;23.25;;;20.75;;
23163;SDS011;31429;42.674;23.350;2023-05-07T01:12:00;22.63;;;19.77;;
23163;SDS011;31429;42.674;23.350;2023-05-07T01:13:01;27.23;;;20.57;;
23163;SDS011;31429;42.674;23.350;2023-05-07T01:14:02;25.80;;;20.98;;
23163;SDS011;31429;42.674;23.350;2023-05-07T01:15:03;21.63;;;19.47;;
23163;SDS011;31429;42.674;23.350;2023-05-07T01:16:05;22.63;;;18.23;;
23163;SDS011;31429;42.674;23.350;2023-05-07T01:17:06;21.65;;;19.35;;
23163;SDS011;31429;42.674;23.350;2023-05-07T01:18:08;23.02;;;19.35;;
23163;SDS011;31429;42.674;23.350;2023-05-07T01:19:09;23.73;;;18.57;;
23163;SDS011;31429;42.674;23.350;2023-05-07T01:20:11;19.60;;;17.40;;
23163;SDS011;31429;42.674;23.350;2023-05-07T01:21:12;20.00;;;17.53;;
23163;SDS011;31429;42.674;23.350;2023-05-07T01:22:16;24.52;;;18.35;;
23163;SDS011;31429;42.674;23.350;2023-05-07T01:23:28;19.73;;;16.13;;
23163;SDS011;31429;42.674;23.350;2023-05-07T01:24:31;17.42;;;14.48;;
23163;SDS011;31429;42.674;23.350;2023-05-07T01:25:32;17.00;;;13.25;;
23163;SDS011;31429;42.674;23.350;2023-05-07T01:26:32;19.50;;;14.47;;
23163;SDS011;31429;42.674;23.350;2023-05-07T01:27:33;16.80;;;13.53;;
23163;SDS011;31429;42.674;23.350;2023-05-07T01:28:35;20.08;;;15.20;;
23163;SDS011;31429;42.674;23.350;2023-05-07T01:29:36;15.90;;;14.03;;
23163;SDS011;31429;42.674;23.350;2023-05-07T01:30:36;14.50;;;12.70;;
23163;SDS011;31429;42.674;23.350;2023-05-07T01:31:41;14.35;;;12.85;;
23163;SDS011;31429;42.674;23.350;2023-05-07T01:32:45;15.32;;;13.07;;
23163;SDS011;31429;42.674;23.350;2023-05-07T01:33:50;19.70;;;17.15;;
23163;SDS011;31429;42.674;23.350;2023-05-07T01:34:52;20.83;;;17.55;;
23163;SDS011;31429;42.674;23.350;2023-05-07T01:35:55;21.90;;;17.30;;
23163;SDS011;31429;42.674;23.350;2023-05-07T01:36:56;18.57;;;16.60;;
23163;SDS011;31429;42.674;23.350;2023-05-07T01:38:00;19.70;;;16.58;;
23163;SDS011;31429;42.674;23.350;2023-05-07T01:39:01;19.63;;;17.50;;
23163;SDS011;31429;42.674;23.350;2023-05-07T01:40:02;22.85;;;17.52;;
23163;SDS011;31429;42.674;23.350;2023-05-07T01:41:04;16.38;;;13.35;;
23163;SDS011;31429;42.674;23.350;2023-05-07T01:42:05;16.70;;;14.57;;
23163;SDS011;31429;42.674;23.350;2023-05-07T01:43:07;15.70;;;12.30;;
23163;SDS011;31429;42.674;23.350;2023-05-07T01:44:08;13.20;;;11.63;;
23163;SDS011;31429;42.674;23.350;2023-05-07T01:45:12;15.85;;;13.38;;
23163;SDS011;31429;42.674;23.350;2023-05-07T01:46:13;17.80;;;15.70;;
23163;SDS011;31429;42.674;23.350;2023-05-07T01:47:15;19.30;;;16.50;;
23163;SDS011;31429;42.674;23.350;2023-05-07T01:48:17;19.55;;;16.05;;
23163;SDS011;31429;42.674;23.350;2023-05-07T01:49:18;21.25;;;16.02;;
23163;SDS011;31429;42.674;23.350;2023-05-07T01:50:19;16.47;;;14.87;;
23163;SDS011;31429;42.674;23.350;2023-05-07T01:51:20;16.75;;;15.15;;
23163;SDS011;31429;42.674;23.350;2023-05-07T01:52:22;20.08;;;15.13;;
23163;SDS011;31429;42.674;23.350;2023-05-07T01:53:25;15.80;;;14.23;;
23163;SDS011;31429;42.674;23.350;2023-05-07T01:54:27;14.07;;;12.35;;
23163;SDS011;31429;42.674;23.350;2023-05-07T01:55:28;14.70;;;13.07;;
23163;SDS011;31429;42.674;23.350;2023-05-07T01:56:29;14.17;;;11.83;;
23163;SDS011;31429;42.674;23.350;2023-05-07T01:57:30;14.13;;;12.57;;
23163;SDS011;31429;42.674;23.350;2023-05-07T01:58:30;13.50;;;11.97;;
23163;SDS011;31429;42.674;23.350;2023-05-07T01:59:31;13.80;;;12.40;;
23163;SDS011;31429;42.674;23.350;2023-05-07T02:00:32;13.30;;;11.53;;
23163;SDS011;31429;42.674;23.350;2023-05-07T02:01:32;13.10;;;10.87;;
23163;SDS011;31429;42.674;23.350;2023-05-07T02:02:33;13.63;;;11.23;;
23163;SDS011;31429;42.674;23.350;2023-05-07T02:03:34;12.97;;;11.73;;
23163;SDS011;31429;42.674;23.350;2023-05-07T02:04:34;14.77;;;11.73;;
23163;SDS011;31429;42.674;23.350;2023-05-07T02:05:35;12.40;;;11.20;;
23163;SDS011;31429;42.674;23.350;2023-05-07T02:06:36;14.47;;;11.93;;
23163;SDS011;31429;42.674;23.350;2023-05-07T02:07:36;11.20;;;10.10;;
23163;SDS011;31429;42.674;23.350;2023-05-07T02:08:38;13.67;;;10.30;;
23163;SDS011;31429;42.674;23.350;2023-05-07T02:09:39;12.65;;;11.23;;
23163;SDS011;31429;42.674;23.350;2023-05-07T02:10:40;16.33;;;12.07;;
23163;SDS011;31429;42.674;23.350;2023-05-07T02:11:40;11.87;;;10.43;;
23163;SDS011;31429;42.674;23.350;2023-05-07T02:12:41;14.30;;;11.37;;
23163;SDS011;31429;42.674;23.350;2023-05-07T02:13:42;11.65;;;10.48;;
23163;SDS011;31429;42.674;23.350;2023-05-07T02:14:43;11.53;;;10.30;;
23163;SDS011;31429;42.674;23.350;2023-05-07T02:15:43;13.93;;;11.40;;
23163;SDS011;31429;42.674;23.350;2023-05-07T02:16:47;13.25;;;10.73;;
23163;SDS011;31429;42.674;23.350;2023-05-07T02:18:00;15.43;;;10.57;;
23163;SDS011;31429;42.674;23.350;2023-05-07T02:19:01;13.90;;;11.18;;
23163;SDS011;31429;42.674;23.350;2023-05-07T02:20:02;12.60;;;11.07;;
23163;SDS011;31429;42.674;23.350;2023-05-07T02:21:03;16.73;;;12.50;;
23163;SDS011;31429;42.674;23.350;2023-05-07T02:22:04;14.50;;;11.53;;
23163;SDS011;31429;42.674;23.350;2023-05-07T02:23:05;12.63;;;11.30;;
23163;SDS011;31429;42.674;23.350;2023-05-07T02:24:07;12.13;;;10.87;;
23163;SDS011;31429;42.674;23.350;2023-05-07T02:25:08;12.50;;;10.82;;
23163;SDS011;31429;42.674;23.350;2023-05-07T02:26:09;16.67;;;11.33;;
23163;SDS011;31429;42.674;23.350;2023-05-07T02:27:11;12.63;;;11.45;;
23163;SDS011;31429;42.674;23.350;2023-05-07T02:28:11;14.07;;;11.27;;
23163;SDS011;31429;42.674;23.350;2023-05-07T02:29:12;13.23;;;10.30;;
23163;SDS011;31429;42.674;23.350;2023-05-07T02:30:13;12.20;;;10.73;;
23163;SDS011;31429;42.674;23.350;2023-05-07T02:31:14;14.15;;;11.30;;
23163;SDS011;31429;42.674;23.350;2023-05-07T02:32:15;13.20;;;11.20;;
23163;SDS011;31429;42.674;23.350;2023-05-07T02:33:16;12.73;;;11.43;;
23163;SDS011;31429;42.674;23.350;2023-05-07T02:34:17;14.03;;;11.50;;
23163;SDS011;31429;42.674;23.350;2023-05-07T02:35:18;14.00;;;12.43;;
23163;SDS011;31429;42.674;23.350;2023-05-07T02:36:18;13.07;;;11.67;;
23163;SDS011;31429;42.674;23.350;2023-05-07T02:37:19;12.80;;;11.37;;
23163;SDS011;31429;42.674;23.350;2023-05-07T02:38:20;14.17;;;12.30;;
23163;SDS011;31429;42.674;23.350;2023-05-07T02:39:22;16.03;;;12.27;;
23163;SDS011;31429;42.674;23.350;2023-05-07T02:40:22;13.07;;;11.73;;
23163;SDS011;31429;42.674;23.350;2023-05-07T02:41:23;12.67;;;11.30;;
23163;SDS011;31429;42.674;23.350;2023-05-07T02:42:24;13.67;;;11.37;;
23163;SDS011;31429;42.674;23.350;2023-05-07T02:43:25;15.17;;;12.43;;
23163;SDS011;31429;42.674;23.350;2023-05-07T02:44:25;15.57;;;12.80;;
23163;SDS011;31429;42.674;23.350;2023-05-07T02:45:26;14.13;;;12.30;;
23163;SDS011;31429;42.674;23.350;2023-05-07T02:46:26;15.77;;;12.47;;
23163;SDS011;31429;42.674;23.350;2023-05-07T02:47:27;13.33;;;12.00;;
23163;SDS011;31429;42.674;23.350;2023-05-07T02:48:28;13.18;;;11.93;;
23163;SDS011;31429;42.674;23.350;2023-05-07T02:49:29;14.07;;;12.77;;
23163;SDS011;31429;42.674;23.350;2023-05-07T02:50:29;13.67;;;12.27;;
23163;SDS011;31429;42.674;23.350;2023-05-07T02:51:30;15.33;;;12.73;;
23163;SDS011;31429;42.674;23.350;2023-05-07T02:52:31;14.33;;;12.77;;
23163;SDS011;31429;42.674;23.350;2023-05-07T02:53:32;14.60;;;13.20;;
23163;SDS011;31429;42.674;23.350;2023-05-07T02:54:34;14.40;;;12.90;;
23163;SDS011;31429;42.674;23.350;2023-05-07T02:55:34;14.27;;;12.73;;
23163;SDS011;31429;42.674;23.350;2023-05-07T02:56:35;14.83;;;13.33;;
23163;SDS011;31429;42.674;23.350;2023-05-07T02:57:36;19.10;;;13.13;;
23163;SDS011;31429;42.674;23.350;2023-05-07T02:58:36;14.17;;;12.77;;
23163;SDS011;31429;42.674;23.350;2023-05-07T02:59:39;15.43;;;13.88;;
23163;SDS011;31429;42.674;23.350;2023-05-07T03:00:39;15.87;;;14.20;;
23163;SDS011;31429;42.674;23.350;2023-05-07T03:01:40;17.03;;;15.23;;
23163;SDS011;31429;42.674;23.350;2023-05-07T03:02:43;16.25;;;14.52;;
23163;SDS011;31429;42.674;23.350;2023-05-07T03:03:44;16.53;;;14.83;;
23163;SDS011;31429;42.674;23.350;2023-05-07T03:04:45;15.07;;;13.57;;
23163;SDS011;31429;42.674;23.350;2023-05-07T03:05:45;14.17;;;11.90;;
23163;SDS011;31429;42.674;23.350;2023-05-07T03:06:46;16.00;;;14.33;;
23163;SDS011;31429;42.674;23.350;2023-05-07T03:07:47;18.30;;;15.23;;
23163;SDS011;31429;42.674;23.350;2023-05-07T03:08:47;17.00;;;15.33;;
23163;SDS011;31429;42.674;23.350;2023-05-07T03:09:49;17.20;;;15.30;;
23163;SDS011;31429;42.674;23.350;2023-05-07T03:10:50;17.67;;;13.95;;
23163;SDS011;31429;42.674;23.350;2023-05-07T03:11:51;15.27;;;13.65;;
23163;SDS011;31429;42.674;23.350;2023-05-07T03:12:52;17.87;;;14.43;;
23163;SDS011;31429;42.674;23.350;2023-05-07T03:13:52;15.57;;;14.00;;
23163;SDS011;31429;42.674;23.350;2023-05-07T03:14:53;15.73;;;14.10;;
23163;SDS011;31429;42.674;23.350;2023-05-07T03:15:53;16.77;;;15.07;;
23163;SDS011;31429;42.674;23.350;2023-05-07T03:16:54;17.20;;;15.37;;
23163;SDS011;31429;42.674;23.350;2023-05-07T03:17:55;20.43;;;16.00;;
23163;SDS011;31429;42.674;23.350;2023-05-07T03:18:55;17.33;;;15.63;;
23163;SDS011;31429;42.674;23.350;2023-05-07T03:19:56;16.83;;;15.13;;
23163;SDS011;31429;42.674;23.350;2023-05-07T03:20:56;17.30;;;15.67;;
23163;SDS011;31429;42.674;23.350;2023-05-07T03:21:57;19.70;;;15.30;;
23163;SDS011;31429;42.674;23.350;2023-05-07T03:22:58;21.73;;;16.40;;
23163;SDS011;31429;42.674;23.350;2023-05-07T03:23:58;17.70;;;15.90;;
23163;SDS011;31429;42.674;23.350;2023-05-07T03:25:01;18.30;;;16.40;;
23163;SDS011;31429;42.674;23.350;2023-05-07T03:26:01;18.35;;;16.55;;
23163;SDS011;31429;42.674;23.350;2023-05-07T03:27:02;18.40;;;16.50;;
23163;SDS011;31429;42.674;23.350;2023-05-07T03:28:02;18.27;;;16.53;;
23163;SDS011;31429;42.674;23.350;2023-05-07T03:29:03;19.87;;;17.87;;
23163;SDS011;31429;42.674;23.350;2023-05-07T03:30:04;17.70;;;16.00;;
23163;SDS011;31429;42.674;23.350;2023-05-07T03:31:06;17.50;;;15.57;;
23163;SDS011;31429;42.674;23.350;2023-05-07T03:32:07;18.10;;;16.27;;
23163;SDS011;31429;42.674;23.350;2023-05-07T03:33:08;18.23;;;16.63;;
23163;SDS011;31429;42.674;23.350;2023-05-07T03:34:08;17.93;;;16.17;;
23163;SDS011;31429;42.674;23.350;2023-05-07T03:35:09;17.43;;;15.87;;
23163;SDS011;31429;42.674;23.350;2023-05-07T03:36:10;18.37;;;16.47;;
23163;SDS011;31429;42.674;23.350;2023-05-07T03:37:10;19.70;;;16.33;;
23163;SDS011;31429;42.674;23.350;2023-05-07T03:38:11;17.07;;;15.40;;
23163;SDS011;31429;42.674;23.350;2023-05-07T03:39:12;18.30;;;16.60;;
23163;SDS011;31429;42.674;23.350;2023-05-07T03:40:14;17.63;;;15.83;;
23163;SDS011;31429;42.674;23.350;2023-05-07T03:41:15;19.35;;;17.42;;
23163;SDS011;31429;42.674;23.350;2023-05-07T03:42:15;17.77;;;15.93;;
23163;SDS011;31429;42.674;23.350;2023-05-07T03:43:16;19.07;;;17.13;;
23163;SDS011;31429;42.674;23.350;2023-05-07T03:44:17;16.87;;;15.17;;
23163;SDS011;31429;42.674;23.350;2023-05-07T03:45:17;20.13;;;16.00;;
23163;SDS011;31429;42.674;23.350;2023-05-07T03:46:18;17.80;;;16.00;;
23163;SDS011;31429;42.674;23.350;2023-05-07T03:47:19;20.50;;;18.50;;
23163;SDS011;31429;42.674;23.350;2023-05-07T03:48:20;20.23;;;18.07;;
23163;SDS011;31429;42.674;23.350;2023-05-07T03:49:20;18.43;;;16.70;;
23163;SDS011;31429;42.674;23.350;2023-05-07T03:50:21;18.60;;;16.30;;
23163;SDS011;31429;42.674;23.350;2023-05-07T03:51:21;17.27;;;15.57;;
23163;SDS011;31429;42.674;23.350;2023-05-07T03:52:22;19.20;;;15.97;;
23163;SDS011;31429;42.674;23.350;2023-05-07T03:53:25;18.52;;;15.85;;
23163;SDS011;31429;42.674;23.350;2023-05-07T03:54:26;18.87;;;16.30;;
23163;SDS011;31429;42.674;23.350;2023-05-07T03:55:28;18.87;;;16.87;;
23163;SDS011;31429;42.674;23.350;2023-05-07T03:56:29;17.80;;;15.98;;
23163;SDS011;31429;42.674;23.350;2023-05-07T03:57:31;21.88;;;17.75;;
23163;SDS011;31429;42.674;23.350;2023-05-07T03:58:31;17.37;;;15.53;;
23163;SDS011;31429;42.674;23.350;2023-05-07T03:59:32;18.13;;;16.30;;
23163;SDS011;31429;42.674;23.350;2023-05-07T04:00:32;18.90;;;16.90;;
23163;SDS011;31429;42.674;23.350;2023-05-07T04:01:38;18.15;;;16.23;;
23163;SDS011;31429;42.674;23.350;2023-05-07T04:02:38;19.37;;;17.33;;
23163;SDS011;31429;42.674;23.350;2023-05-07T04:03:39;19.03;;;17.03;;
23163;SDS011;31429;42.674;23.350;2023-05-07T04:04:40;18.20;;;16.40;;
23163;SDS011;31429;42.674;23.350;2023-05-07T04:05:59;17.85;;;16.05;;
23163;SDS011;31429;42.674;23.350;2023-05-07T04:06:59;18.30;;;16.50;;
23163;SDS011;31429;42.674;23.350;2023-05-07T04:08:00;18.73;;;16.93;;
23163;SDS011;31429;42.674;23.350;2023-05-07T04:09:02;18.83;;;16.33;;
23163;SDS011;31429;42.674;23.350;2023-05-07T04:10:03;18.10;;;16.30;;
23163;SDS011;31429;42.674;23.350;2023-05-07T04:11:06;23.02;;;19.23;;
23163;SDS011;31429;42.674;23.350;2023-05-07T04:12:06;21.70;;;17.65;;
23163;SDS011;31429;42.674;23.350;2023-05-07T04:13:07;20.33;;;17.77;;
23163;SDS011;31429;42.674;23.350;2023-05-07T04:14:08;19.10;;;17.20;;
23163;SDS011;31429;42.674;23.350;2023-05-07T04:15:09;19.90;;;17.83;;
23163;SDS011;31429;42.674;23.350;2023-05-07T04:16:10;19.10;;;17.10;;
23163;SDS011;31429;42.674;23.350;2023-05-07T04:17:10;19.30;;;17.50;;
23163;SDS011;31429;42.674;23.350;2023-05-07T04:18:11;19.63;;;17.53;;
23163;SDS011;31429;42.674;23.350;2023-05-07T04:19:12;18.87;;;16.87;;
23163;SDS011;31429;42.674;23.350;2023-05-07T04:20:13;19.00;;;16.80;;
23163;SDS011;31429;42.674;23.350;2023-05-07T04:21:16;22.88;;;18.38;;
23163;SDS011;31429;42.674;23.350;2023-05-07T04:22:17;20.35;;;18.23;;
23163;SDS011;31429;42.674;23.350;2023-05-07T04:23:18;23.43;;;17.97;;
23163;SDS011;31429;42.674;23.350;2023-05-07T04:24:18;20.67;;;18.47;;
23163;SDS011;31429;42.674;23.350;2023-05-07T04:25:20;21.10;;;17.33;;
23163;SDS011;31429;42.674;23.350;2023-05-07T04:26:22;22.63;;;18.27;;
23163;SDS011;31429;42.674;23.350;2023-05-07T04:27:24;21.67;;;18.58;;
23163;SDS011;31429;42.674;23.350;2023-05-07T04:28:25;19.30;;;17.15;;
23163;SDS011;31429;42.674;23.350;2023-05-07T04:29:26;22.03;;;18.20;;
23163;SDS011;31429;42.674;23.350;2023-05-07T04:30:27;20.52;;;17.85;;
23163;SDS011;31429;42.674;23.350;2023-05-07T04:31:27;19.60;;;17.50;;
23163;SDS011;31429;42.674;23.350;2023-05-07T04:32:28;18.98;;;15.85;;
23163;SDS011;31429;42.674;23.350;2023-05-07T04:33:30;19.33;;;16.92;;
23163;SDS011;31429;42.674;23.350;2023-05-07T04:34:30;19.63;;;16.63;;
23163;SDS011;31429;42.674;23.350;2023-05-07T04:35:31;18.67;;;16.63;;
23163;SDS011;31429;42.674;23.350;2023-05-07T04:36:31;20.37;;;16.60;;
23163;SDS011;31429;42.674;23.350;2023-05-07T04:37:33;19.52;;;16.65;;
23163;SDS011;31429;42.674;23.350;2023-05-07T04:38:33;16.90;;;15.20;;
23163;SDS011;31429;42.674;23.350;2023-05-07T04:39:34;21.57;;;15.67;;
23163;SDS011;31429;42.674;23.350;2023-05-07T04:40:35;17.90;;;15.47;;
23163;SDS011;31429;42.674;23.350;2023-05-07T04:41:37;18.75;;;16.77;;
23163;SDS011;31429;42.674;23.350;2023-05-07T04:42:38;19.05;;;17.27;;
23163;SDS011;31429;42.674;23.350;2023-05-07T04:43:39;19.13;;;17.20;;
23163;SDS011;31429;42.674;23.350;2023-05-07T04:44:40;18.60;;;16.60;;
23163;SDS011;31429;42.674;23.350;2023-05-07T04:45:40;17.77;;;15.87;;
23163;SDS011;31429;42.674;23.350;2023-05-07T04:46:41;17.60;;;15.57;;
23163;SDS011;31429;42.674;23.350;2023-05-07T04:47:42;18.73;;;15.50;;
23163;SDS011;31429;42.674;23.350;2023-05-07T04:48:42;20.07;;;16.70;;
23163;SDS011;31429;42.674;23.350;2023-05-07T04:49:43;22.77;;;16.67;;
23163;SDS011;31429;42.674;23.350;2023-05-07T04:50:44;18.57;;;16.77;;
23163;SDS011;31429;42.674;23.350;2023-05-07T04:51:44;18.50;;;16.60;;
23163;SDS011;31429;42.674;23.350;2023-05-07T04:52:45;20.40;;;18.30;;
23163;SDS011;31429;42.674;23.350;2023-05-07T04:53:47;21.87;;;17.70;;
23163;SDS011;31429;42.674;23.350;2023-05-07T04:54:48;18.67;;;16.73;;
23163;SDS011;31429;42.674;23.350;2023-05-07T04:55:49;21.33;;;17.70;;
23163;SDS011;31429;42.674;23.350;2023-05-07T04:56:56;20.27;;;17.63;;
23163;SDS011;31429;42.674;23.350;2023-05-07T04:57:57;21.27;;;17.05;;
23163;SDS011;31429;42.674;23.350;2023-05-07T04:58:57;18.23;;;16.40;;
23163;SDS011;31429;42.674;23.350;2023-05-07T04:59:58;19.23;;;15.87;;
23163;SDS011;31429;42.674;23.350;2023-05-07T05:00:59;19.10;;;16.83;;
23163;SDS011;31429;42.674;23.350;2023-05-07T05:02:00;18.27;;;16.38;;
23163;SDS011;31429;42.674;23.350;2023-05-07T05:03:01;19.73;;;16.95;;
23163;SDS011;31429;42.674;23.350;2023-05-07T05:04:02;25.47;;;20.97;;
23163;SDS011;31429;42.674;23.350;2023-05-07T05:05:02;22.07;;;19.03;;
23163;SDS011;31429;42.674;23.350;2023-05-07T05:06:03;19.92;;;17.90;;
23163;SDS011;31429;42.674;23.350;2023-05-07T05:07:04;20.27;;;17.63;;
23163;SDS011;31429;42.674;23.350;2023-05-07T05:08:05;21.80;;;19.38;;
23163;SDS011;31429;42.674;23.350;2023-05-07T05:09:06;19.37;;;16.87;;
23163;SDS011;31429;42.674;23.350;2023-05-07T05:10:07;27.27;;;17.97;;
23163;SDS011;31429;42.674;23.350;2023-05-07T05:11:08;22.70;;;17.60;;
23163;SDS011;31429;42.674;23.350;2023-05-07T05:12:10;22.33;;;16.17;;
23163;SDS011;31429;42.674;23.350;2023-05-07T05:13:10;22.80;;;17.52;;
23163;SDS011;31429;42.674;23.350;2023-05-07T05:14:12;25.70;;;20.85;;
23163;SDS011;31429;42.674;23.350;2023-05-07T05:15:13;22.57;;;17.60;;
23163;SDS011;31429;42.674;23.350;2023-05-07T05:16:14;28.23;;;20.77;;
23163;SDS011;31429;42.674;23.350;2023-05-07T05:17:14;21.17;;;19.07;;
23163;SDS011;31429;42.674;23.350;2023-05-07T05:18:15;22.27;;;18.43;;
23163;SDS011;31429;42.674;23.350;2023-05-07T05:19:15;22.50;;;18.87;;
23163;SDS011;31429;42.674;23.350;2023-05-07T05:20:16;21.77;;;18.83;;
23163;SDS011;31429;42.674;23.350;2023-05-07T05:21:17;21.60;;;19.07;;
23163;SDS011;31429;42.674;23.350;2023-05-07T05:22:18;30.73;;;25.90;;
23163;SDS011;31429;42.674;23.350;2023-05-07T05:23:18;23.60;;;18.90;;
23163;SDS011;31429;42.674;23.350;2023-05-07T05:24:19;21.67;;;17.13;;
23163;SDS011;31429;42.674;23.350;2023-05-07T05:25:20;22.73;;;19.10;;
23163;SDS011;31429;42.674;23.350;2023-05-07T05:26:20;39.80;;;29.73;;
23163;SDS011;31429;42.674;23.350;2023-05-07T05:27:22;30.10;;;25.83;;
23163;SDS011;31429;42.674;23.350;2023-05-07T05:28:23;32.70;;;28.38;;
23163;SDS011;31429;42.674;23.350;2023-05-07T05:29:24;29.30;;;25.53;;
23163;SDS011;31429;42.674;23.350;2023-05-07T05:30:25;23.23;;;19.27;;
23163;SDS011;31429;42.674;23.350;2023-05-07T05:31:25;21.77;;;18.20;;
23163;SDS011;31429;42.674;23.350;2023-05-07T05:32:26;22.80;;;20.37;;
23163;SDS011;31429;42.674;23.350;2023-05-07T05:33:26;21.27;;;17.93;;
23163;SDS011;31429;42.674;23.350;2023-05-07T05:34:27;19.37;;;17.43;;
23163;SDS011;31429;42.674;23.350;2023-05-07T05:35:29;20.87;;;18.77;;
23163;SDS011;31429;42.674;23.350;2023-05-07T05:36:29;21.63;;;19.40;;
23163;SDS011;31429;42.674;23.350;2023-05-07T05:37:30;20.67;;;18.47;;
23163;SDS011;31429;42.674;23.350;2023-05-07T05:38:31;23.97;;;18.90;;
23163;SDS011;31429;42.674;23.350;2023-05-07T05:39:32;24.90;;;19.60;;
23163;SDS011;31429;42.674;23.350;2023-05-07T05:40:32;22.93;;;18.37;;
23163;SDS011;31429;42.674;23.350;2023-05-07T05:41:33;22.60;;;19.80;;
23163;SDS011;31429;42.674;23.350;2023-05-07T05:42:35;18.80;;;16.80;;
23163;SDS011;31429;42.674;23.350;2023-05-07T05:43:36;23.47;;;21.03;;
23163;SDS011;31429;42.674;23.350;2023-05-07T05:44:37;20.77;;;18.27;;
23163;SDS011;31429;42.674;23.350;2023-05-07T05:45:37;19.40;;;17.33;;
23163;SDS011;31429;42.674;23.350;2023-05-07T05:46:38;21.30;;;18.87;;
23163;SDS011;31429;42.674;23.350;2023-05-07T05:47:38;29.33;;;23.50;;
23163;SDS011;31429;42.674;23.350;2023-05-07T05:48:39;20.83;;;18.23;;
23163;SDS011;31429;42.674;23.350;2023-05-07T05:49:40;35.10;;;18.90;;
23163;SDS011;31429;42.674;23.350;2023-05-07T05:50:41;24.67;;;19.40;;
23163;SDS011;31429;42.674;23.350;2023-05-07T05:51:42;26.67;;;19.37;;
23163;SDS011;31429;42.674;23.350;2023-05-07T05:52:43;22.13;;;18.20;;